首页
METAR-TAF:

METAR-TAF

机场 :

南安普敦機場

南安普敦, 英格兰

纬度: 50-54N, 经度: 001-24W, 海拔: 9米

当前天气观测

该预报发布于30分钟前的10:20 UTC
风速3节,风向多变
温度 19°C
湿度 64%
气压 1011 hPa
能见度10公里或以上
散云层高于2500英尺

METAR: EGHI 011020Z VRB03KT 9999 SCT025 19/12 Q1011

时间: 11:50 (10:50 UTC)

预报

该预报发布于1小时和49分钟前的09:01 UTC
预报有效从01日的 09点(UTC)到 01日的 18点(UTC)
风速4节,风向西
能见度10公里或以上
散云层高于2000英尺
几率 30% :
短暂存在
从 01日的 09点(UTC)到 01日的 11点(UTC)
多云层高于1200英尺
短暂存在
从 01日的 11点(UTC)到 01日的 18点(UTC)
能見度: 7000
阵雨
几率 30% :
短暂存在
从 01日的 11点(UTC)到 01日的 18点(UTC)
能見度: 3000
多云层高于1400英尺
多云层高于2500英尺, 积雨云.
大阵雨

TAF: EGHI 010901Z 0109/0118 27004KT 9999 SCT020 PROB30 TEMPO 0109/0111 BKN012 TEMPO 0111/0118 7000 SHRA PROB30 TEMPO 0111/0118 3000 +SHRA BKN014 BKN025CB

超过4000个机场的气象观测和天气预报(METAR&TAF报告)。

可查询的气象台以黄色和红色小点在地图上表示。

将鼠标移到小点上方,可查看气象台名称。

然后点击查看天气观测和预报。

如需切换地图:点击带黑十字的绿色按钮放大地图;点击带横线的绿色按钮缩小地图;或者点击绿色箭头查看邻近地区的地图。


METAR-TAF: